Parsival — V2MS — position and weather

sailwx.info

Track history (hours):
 
Tides and Currents Weather Stations Pressure Air Temp Water Temp Dewpoint Dewpoint Depression Visibility Wind Speed Wind Dir Waves Ship Positions

Parsival

Last reported at 2015-Jan-29 05:32 UTC. Time now 2015-Jan-29 06:22 UTC.
Position N 43°19' W 002°60'.

; draft 4.9 m.

Type: Cargo ship. MMSI: 304010881.

Date/timePositionNaut miles runAvg speedWind from/ knotsBaromVisibWave heightAir tempDewpointWater temp
2015-Jan-29 05:32N 43°19' W 002°60'0 0.0
2015-Jan-29 04:32N 43°19' W 002°60'0 0.0
2015-Jan-29 03:32N 43°19' W 002°60'0 0.0
2015-Jan-29 02:29N 43°19' W 002°60'0 0.0
2015-Jan-29 01:32N 43°19' W 002°60'0 0.0
2015-Jan-29 00:32N 43°19' W 002°60'0 0.0
2015-Jan-28 23:32N 43°19' W 002°60'0 0.0
2015-Jan-28 22:32N 43°19' W 002°60'0 0.0
2015-Jan-28 21:32N 43°19' W 002°60'0 0.0
2015-Jan-28 20:32N 43°19' W 002°60'0 0.0
2015-Jan-28 19:32N 43°19' W 002°60'0 0.0
2015-Jan-28 18:32N 43°19' W 002°60'0 0.0
2015-Jan-28 17:32N 43°19' W 002°60'0 0.0
2015-Jan-28 16:32N 43°19' W 002°60'0 0.0
2015-Jan-28 15:32N 43°19' W 002°60'0 0.0
2015-Jan-28 14:32N 43°19' W 002°60'0 0.0
2015-Jan-28 13:32N 43°19' W 002°60'0 0.0
2015-Jan-28 12:32N 43°19' W 002°60'0 0.0
2015-Jan-28 11:32N 43°19' W 002°60'0 0.0
2015-Jan-28 10:32N 43°19' W 002°60'0 0.0
2015-Jan-28 09:32N 43°19' W 002°60'0 0.0
2015-Jan-28 08:32N 43°19' W 002°60'0 0.0
2015-Jan-28 07:32N 43°19' W 002°60'0 0.0
2015-Jan-28 06:32N 43°19' W 002°60'0 0.0
2015-Jan-28 05:29N 43°19' W 002°60'0 0.0
2015-Jan-28 04:32N 43°19' W 002°60'0 0.0
2015-Jan-28 03:32N 43°19' W 002°60'0 0.0
2015-Jan-28 02:32N 43°19' W 002°60'0 0.0
2015-Jan-28 01:32N 43°19' W 002°60'0 0.0
2015-Jan-28 00:32N 43°19' W 002°60'0 0.0
2015-Jan-27 23:32N 43°19' W 002°60'0 0.0
2015-Jan-27 22:32N 43°19' W 002°60'0 0.0
2015-Jan-27 21:32N 43°19' W 002°60'0 0.0
2015-Jan-27 20:32N 43°19' W 002°60'7 0.4
2015-Jan-27 04:32N 43°22' W 003°08'0 0.0
2015-Jan-27 03:32N 43°22' W 003°08'0 0.0
2015-Jan-27 02:32N 43°22' W 003°08'0 0.0
2015-Jan-27 01:32N 43°22' W 003°08'0 0.0
2015-Jan-27 00:32N 43°22' W 003°08'0 0.0
2015-Jan-26 23:32N 43°22' W 003°08'5 5.2
2015-Jan-26 22:33N 43°28' W 003°07'9 9.0
2015-Jan-26 21:33N 43°36' W 003°12'9 9.5
2015-Jan-26 20:33N 43°45' W 003°17'423 8.5
2015-Jan-24 19:07N 50°37' W 005°32'4 6.8
2015-Jan-24 18:33N 50°40' W 005°27'8 6.9
2015-Jan-24 17:27N 50°45' W 005°18'  
2015-Jan-22 00:32N 54°20' W 005°21'9 9.1
2015-Jan-21 23:31N 54°29' W 005°20'710.0
2015-Jan-21 22:49N 54°36' W 005°23'110.4
2015-Jan-21 22:46N 54°37' W 005°24'310.8
2015-Jan-21 22:32N 54°39' W 005°24'1111.4
2015-Jan-21 21:33N 54°49' W 005°33'2711.9
2015-Jan-21 19:16N 55°13' W 005°57'811.2
2015-Jan-21 18:33N 55°19' W 006°05'8 8.0
2015-Jan-21 17:33N 55°21' W 006°18'8 7.5
2015-Jan-21 16:33N 55°18' W 006°31'7 7.4
2015-Jan-21 15:33N 55°16' W 006°43'9 8.4
2015-Jan-21 14:31N 55°12' W 006°57'8 0.2
2015-Jan-20 04:17N 55°17' W 006°45'7 9.0
2015-Jan-20 03:33N 55°20' W 006°35'10 9.4
2015-Jan-20 02:32N 55°25' W 006°20'1010.3
2015-Jan-20 01:32N 55°24' W 006°02'1212.4
2015-Jan-20 00:34N 55°14' W 005°50'2110.3
2015-Jan-19 22:33N 54°56' W 005°35'8 8.3
2015-Jan-19 21:33N 54°48' W 005°29'8 7.5
2015-Jan-19 20:33N 54°41' W 005°23'7 7.3
2015-Jan-19 19:33N 54°35' W 005°18'8 7.6
2015-Jan-19 18:33N 54°27' W 005°15'8 8.3
2015-Jan-19 17:33N 54°19' W 005°17'  
Track history (hours):
 
Tides and Currents Weather Stations Pressure Air Temp Water Temp Dewpoint Dewpoint Depression Visibility Wind Speed Wind Dir Waves Ship Positions

Parsival

Last reported at 2015-Jan-29 05:32 UTC. Time now 2015-Jan-29 06:22 UTC.
Position N 43°19' W 002°60'.

; draft 4.9 m.

Type: Cargo ship. MMSI: 304010881.

Date/timePositionNaut miles runAvg speedWind from/ knotsBaromVisibWave heightAir tempDewpointWater temp
2015-Jan-29 05:32N 43°19' W 002°60'0 0.0
2015-Jan-29 04:32N 43°19' W 002°60'0 0.0
2015-Jan-29 03:32N 43°19' W 002°60'0 0.0
2015-Jan-29 02:29N 43°19' W 002°60'0 0.0
2015-Jan-29 01:32N 43°19' W 002°60'0 0.0
2015-Jan-29 00:32N 43°19' W 002°60'0 0.0
2015-Jan-28 23:32N 43°19' W 002°60'0 0.0
2015-Jan-28 22:32N 43°19' W 002°60'0 0.0
2015-Jan-28 21:32N 43°19' W 002°60'0 0.0
2015-Jan-28 20:32N 43°19' W 002°60'0 0.0
2015-Jan-28 19:32N 43°19' W 002°60'0 0.0
2015-Jan-28 18:32N 43°19' W 002°60'0 0.0
2015-Jan-28 17:32N 43°19' W 002°60'0 0.0
2015-Jan-28 16:32N 43°19' W 002°60'0 0.0
2015-Jan-28 15:32N 43°19' W 002°60'0 0.0
2015-Jan-28 14:32N 43°19' W 002°60'0 0.0
2015-Jan-28 13:32N 43°19' W 002°60'0 0.0
2015-Jan-28 12:32N 43°19' W 002°60'0 0.0
2015-Jan-28 11:32N 43°19' W 002°60'0 0.0
2015-Jan-28 10:32N 43°19' W 002°60'0 0.0
2015-Jan-28 09:32N 43°19' W 002°60'0 0.0
2015-Jan-28 08:32N 43°19' W 002°60'0 0.0
2015-Jan-28 07:32N 43°19' W 002°60'0 0.0
2015-Jan-28 06:32N 43°19' W 002°60'0 0.0
2015-Jan-28 05:29N 43°19' W 002°60'0 0.0
2015-Jan-28 04:32N 43°19' W 002°60'0 0.0
2015-Jan-28 03:32N 43°19' W 002°60'0 0.0
2015-Jan-28 02:32N 43°19' W 002°60'0 0.0
2015-Jan-28 01:32N 43°19' W 002°60'0 0.0
2015-Jan-28 00:32N 43°19' W 002°60'0 0.0
2015-Jan-27 23:32N 43°19' W 002°60'0 0.0
2015-Jan-27 22:32N 43°19' W 002°60'0 0.0
2015-Jan-27 21:32N 43°19' W 002°60'0 0.0
2015-Jan-27 20:32N 43°19' W 002°60'7 0.4
2015-Jan-27 04:32N 43°22' W 003°08'0 0.0
2015-Jan-27 03:32N 43°22' W 003°08'0 0.0
2015-Jan-27 02:32N 43°22' W 003°08'0 0.0
2015-Jan-27 01:32N 43°22' W 003°08'0 0.0
2015-Jan-27 00:32N 43°22' W 003°08'0 0.0
2015-Jan-26 23:32N 43°22' W 003°08'5 5.2
2015-Jan-26 22:33N 43°28' W 003°07'9 9.0
2015-Jan-26 21:33N 43°36' W 003°12'9 9.5
2015-Jan-26 20:33N 43°45' W 003°17'423 8.5
2015-Jan-24 19:07N 50°37' W 005°32'4 6.8
2015-Jan-24 18:33N 50°40' W 005°27'8 6.9
2015-Jan-24 17:27N 50°45' W 005°18'  
2015-Jan-22 00:32N 54°20' W 005°21'9 9.1
2015-Jan-21 23:31N 54°29' W 005°20'710.0
2015-Jan-21 22:49N 54°36' W 005°23'110.4
2015-Jan-21 22:46N 54°37' W 005°24'310.8
2015-Jan-21 22:32N 54°39' W 005°24'1111.4
2015-Jan-21 21:33N 54°49' W 005°33'2711.9
2015-Jan-21 19:16N 55°13' W 005°57'811.2
2015-Jan-21 18:33N 55°19' W 006°05'8 8.0
2015-Jan-21 17:33N 55°21' W 006°18'8 7.5
2015-Jan-21 16:33N 55°18' W 006°31'7 7.4
2015-Jan-21 15:33N 55°16' W 006°43'9 8.4
2015-Jan-21 14:31N 55°12' W 006°57'8 0.2
2015-Jan-20 04:17N 55°17' W 006°45'7 9.0
2015-Jan-20 03:33N 55°20' W 006°35'10 9.4
2015-Jan-20 02:32N 55°25' W 006°20'1010.3
2015-Jan-20 01:32N 55°24' W 006°02'1212.4
2015-Jan-20 00:34N 55°14' W 005°50'2110.3
2015-Jan-19 22:33N 54°56' W 005°35'8 8.3
2015-Jan-19 21:33N 54°48' W 005°29'8 7.5
2015-Jan-19 20:33N 54°41' W 005°23'7 7.3
2015-Jan-19 19:33N 54°35' W 005°18'8 7.6
2015-Jan-19 18:33N 54°27' W 005°15'8 8.3
2015-Jan-19 17:33N 54°19' W 005°17'  

Dump ship's entire track history